Timmins/Victor M. Power
CYTS : now visible

Airfield :











YOU CAN JOIN US ON...

 
LOGIN :

Register | Disclaimer

   EN    FR    IT 

 









Legend :    VFR   Marginal VFR   IFR   Intensive IFR   Very Intensive IFR
Visi :
Ceiling :
>= 8 km
>= 3000ft
5 to 8 km
1000 to 3000 ft
1500m to 5 km
500 to 1000 ft
800 to 1500m
200 to 500 ft
< 800m
< 200 ft
Symbols :   Thunderstorms  Fog  Heavy snow  Heavy precipitations  Wind > 20 kt






- Airport Elevation : 967 ft
- IATA code : YTS


CYTS - Timmins/Victor M. Power

CURRENT METAR :
  • 122200Z 09005KT 2 1/2SM -SN OVC020 M15/M17 A3026 RMK SC8 SLP284

EXPIRED METARs :
  • 122142Z 10005KT 2 1/2SM -SN OVC021 M15/M17 A3027 RMK SN2SC6 SLP286
  • 122136Z 10004KT 3SM -SN BKN020 OVC054 M15/M17 A3027 RMK SN1SC6SC1 SLP287
  • 122127Z 11004KT 10SM -SN BKN021 BKN054 M15/M17 A3028 RMK SC5SC2 SLP289
  • 122100Z 11004KT 15SM BKN021 BKN054 M15/M17 A3029 RMK SC5SC2 SLP292
  • 122044Z 12003KT 15SM -SN BKN027 M14/M17 A3029 RMK SC7 VIS S 3 SLP294
  • 122000Z 12002KT 15SM SCT030 BKN040 BKN140 M15/M18 A3031 RMK SC3SC2AC2 SLP299

TAF AMD TAF CYTS
Valid from the 12 at 21:00 until the 13 at 08:00 UTC


122140Z 1221/1308 10005KT 3SM -SN SCT020 OVC040
TEMPO 1221/1305 11/2SM -SN OVC020
FM130500 06005KT 4SM -SN BKN008 OVC015 RMK NXT FCST BY 130200Z



MET'MAP, your aeronautical weather chart ! - Copyright ORBIFLY December 2007 - Disclaimer

ORBIFLY MET'MAP TEAM :

Programming & Development : Alexandra Zaïnal
Concept & original design : Baudouin d'Aumeries
Assistance for programming : Marc-Olivier Méhu
Technical & hardware support : Manuel Goepfert

Contact : metmap@orbifly.com




SOURCES & CREDITS :

   NOAA       Earth
Advisory